createdAt,value
2023-03-06T00:00:14.182Z,23.63
2023-03-06T00:10:19.347Z,23.61
2023-03-06T00:20:24.560Z,23.56
2023-03-06T00:30:29.664Z,23.52
2023-03-06T00:41:54.657Z,23.49
2023-03-06T00:51:58.791Z,23.45
2023-03-06T01:02:04.000Z,23.43
2023-03-06T01:12:09.476Z,23.41
2023-03-06T01:22:14.968Z,23.38
2023-03-06T01:32:20.533Z,23.37
2023-03-06T01:42:26.278Z,23.35
2023-03-06T01:52:31.706Z,23.32
2023-03-06T02:02:36.720Z,23.29
2023-03-06T02:12:42.015Z,23.26
2023-03-06T02:22:47.647Z,23.27
2023-03-06T02:32:53.034Z,23.23
2023-03-06T02:42:58.798Z,23.22
2023-03-06T02:53:03.637Z,23.23
2023-03-06T03:03:09.071Z,23.21
2023-03-06T03:13:14.102Z,23.20
2023-03-06T03:23:19.332Z,23.18
2023-03-06T03:33:24.416Z,23.17
2023-03-06T03:43:29.514Z,23.17
2023-03-06T03:53:34.912Z,23.15
2023-03-06T04:03:40.072Z,23.14
2023-03-06T04:13:45.117Z,23.12
2023-03-06T04:23:50.252Z,23.12
2023-03-06T04:33:56.810Z,23.12
2023-03-06T04:44:02.057Z,23.11
2023-03-06T04:54:07.376Z,23.10
2023-03-06T05:04:12.606Z,23.08
2023-03-06T05:14:17.762Z,23.09
2023-03-06T05:24:22.898Z,23.08
2023-03-06T05:34:28.255Z,23.08
2023-03-06T05:44:33.448Z,23.06
2023-03-06T05:54:38.747Z,23.06
2023-03-06T06:04:43.687Z,23.06
2023-03-06T06:14:48.671Z,23.06
2023-03-06T06:24:54.015Z,23.04
2023-03-06T06:34:59.272Z,23.05
2023-03-06T06:45:05.191Z,23.04
2023-03-06T06:55:10.177Z,23.04
2023-03-06T07:05:15.390Z,23.07
2023-03-06T07:15:20.521Z,23.09
2023-03-06T07:25:25.710Z,23.08
2023-03-06T07:35:30.835Z,23.06
2023-03-06T07:45:36.406Z,23.04
2023-03-06T07:55:41.724Z,23.01
2023-03-06T08:05:46.988Z,23.01
2023-03-06T08:15:52.087Z,23.00
2023-03-06T08:25:57.475Z,22.96
2023-03-06T08:36:02.908Z,22.97
2023-03-06T08:46:08.340Z,23.02
2023-03-06T08:56:13.817Z,23.13
2023-03-06T09:06:19.042Z,23.07
2023-03-06T09:16:24.483Z,23.10
2023-03-06T09:26:43.493Z,23.11
2023-03-06T09:36:55.650Z,23.09
2023-03-06T09:46:50.567Z,23.09
2023-03-06T09:56:56.172Z,23.09
2023-03-06T10:07:01.495Z,23.09
2023-03-06T10:17:06.675Z,23.06
2023-03-06T10:27:12.217Z,23.08
2023-03-06T10:37:17.379Z,23.08
2023-03-06T10:47:22.577Z,23.07
2023-03-06T10:57:27.924Z,23.07
2023-03-06T11:07:33.265Z,23.07
2023-03-06T11:17:38.386Z,23.07
2023-03-06T11:27:43.719Z,23.06
2023-03-06T11:37:48.909Z,23.05
2023-03-06T11:47:53.870Z,23.05
2023-03-06T11:57:59.744Z,23.05
2023-03-06T12:08:05.495Z,23.05
2023-03-06T12:18:10.566Z,23.04
2023-03-06T12:28:16.175Z,23.05
2023-03-06T12:38:21.735Z,23.03
2023-03-06T12:48:27.284Z,23.04
2023-03-06T12:58:32.406Z,23.04
2023-03-06T13:08:37.876Z,23.04
2023-03-06T13:18:43.069Z,23.04
2023-03-06T13:28:48.412Z,23.04
2023-03-06T13:38:53.692Z,23.04
2023-03-06T13:48:59.546Z,23.03
2023-03-06T13:59:04.804Z,23.04
2023-03-06T14:09:10.029Z,23.04
2023-03-06T14:19:15.460Z,23.04
2023-03-06T14:29:20.832Z,23.05
2023-03-06T14:39:26.941Z,23.05
2023-03-06T14:49:32.292Z,23.11
2023-03-06T14:59:37.769Z,23.18
2023-03-06T15:09:43.065Z,23.28
2023-03-06T15:19:48.513Z,23.44
2023-03-06T15:29:53.918Z,23.58
2023-03-06T15:39:59.219Z,23.65
2023-03-06T15:50:04.336Z,23.80
2023-03-06T16:00:21.695Z,23.85
2023-03-06T16:10:20.189Z,23.85
2023-03-06T16:20:25.703Z,23.94
2023-03-06T16:30:31.354Z,24.00
2023-03-06T16:40:36.748Z,24.01
2023-03-06T16:50:41.913Z,24.02
2023-03-06T17:02:06.826Z,24.01
2023-03-06T17:12:11.464Z,24.02
2023-03-06T17:22:17.129Z,23.99
2023-03-06T17:32:22.292Z,23.91
2023-03-06T17:42:27.404Z,23.85
2023-03-06T17:52:32.531Z,23.85
2023-03-06T18:02:37.797Z,23.92
2023-03-06T18:12:42.846Z,23.97
2023-03-06T18:22:48.500Z,24.08
2023-03-06T18:32:53.472Z,24.12
2023-03-06T18:42:58.891Z,24.14
2023-03-06T18:53:04.117Z,24.14
2023-03-06T19:03:09.382Z,24.13
2023-03-06T19:13:14.644Z,24.15
2023-03-06T19:23:20.279Z,24.09
2023-03-06T19:33:25.665Z,24.05
2023-03-06T19:43:30.956Z,24.09
2023-03-06T19:53:36.121Z,24.12
2023-03-06T20:03:41.774Z,24.22
2023-03-06T20:13:47.740Z,24.20
2023-03-06T20:23:53.480Z,24.16
2023-03-06T20:33:58.825Z,24.13
2023-03-06T20:44:04.334Z,24.22
2023-03-06T20:54:09.684Z,24.26
2023-03-06T21:04:16.196Z,24.24
2023-03-06T21:14:21.572Z,24.23
2023-03-06T21:24:26.708Z,24.24
2023-03-06T21:34:32.353Z,24.22
2023-03-06T21:44:37.638Z,24.19
2023-03-06T21:54:42.917Z,24.11
2023-03-06T22:04:48.160Z,24.04
2023-03-06T22:14:53.493Z,24.01
2023-03-06T22:24:59.077Z,23.97
2023-03-06T22:35:04.719Z,23.95
2023-03-06T22:45:14.138Z,23.93
2023-03-06T22:55:19.103Z,23.90
2023-03-06T23:05:24.472Z,23.87
2023-03-06T23:15:29.504Z,23.85
2023-03-06T23:25:36.951Z,23.82
2023-03-06T23:35:42.317Z,23.79
2023-03-06T23:45:47.542Z,23.78
2023-03-06T23:55:52.882Z,23.77
